createdAt,value
2022-08-20T00:02:56.200Z,3.53
2022-08-20T00:08:01.224Z,5.05
2022-08-20T00:13:04.712Z,3.70
2022-08-20T00:18:08.944Z,6.10
2022-08-20T00:23:16.934Z,4.13
2022-08-20T00:28:19.778Z,5.97
2022-08-20T00:33:24.919Z,3.90
2022-08-20T00:38:28.973Z,3.05
2022-08-20T00:43:35.162Z,4.45
2022-08-20T00:48:43.052Z,2.72
2022-08-20T00:53:47.810Z,3.50
2022-08-20T00:58:52.888Z,4.00
2022-08-20T01:03:56.541Z,6.00
2022-08-20T01:09:02.242Z,4.93
2022-08-20T01:14:22.705Z,7.78
2022-08-20T01:19:31.643Z,5.88
2022-08-20T01:24:40.050Z,2.70
2022-08-20T01:29:44.402Z,5.05
2022-08-20T01:34:47.347Z,7.40
2022-08-20T01:39:50.139Z,6.70
2022-08-20T01:44:54.331Z,5.35
2022-08-20T01:50:00.544Z,6.20
2022-08-20T01:55:04.042Z,5.53
2022-08-20T02:00:20.223Z,5.95
2022-08-20T02:05:25.307Z,8.02
2022-08-20T02:10:34.129Z,6.10
2022-08-20T02:15:39.826Z,6.55
2022-08-20T02:20:46.955Z,8.90
2022-08-20T02:25:49.815Z,9.25
2022-08-20T02:30:56.150Z,13.93
2022-08-20T02:35:58.955Z,11.77
2022-08-20T02:41:02.095Z,13.70
2022-08-20T02:46:07.346Z,9.63
2022-08-20T02:51:10.552Z,9.32
2022-08-20T02:56:13.770Z,13.60
2022-08-20T03:01:19.442Z,11.95
2022-08-20T03:06:22.326Z,10.98
2022-08-20T03:11:25.118Z,12.43
2022-08-20T03:16:29.278Z,15.07
2022-08-20T03:21:32.316Z,12.93
2022-08-20T03:26:35.127Z,14.13
2022-08-20T03:31:39.504Z,15.02
2022-08-20T03:36:42.737Z,14.50
2022-08-20T03:41:45.466Z,18.90
2022-08-20T03:46:49.577Z,16.42
2022-08-20T03:51:57.839Z,18.17
2022-08-20T03:57:12.465Z,16.45
2022-08-20T04:02:17.096Z,18.95
2022-08-20T04:07:25.621Z,15.38
2022-08-20T04:12:28.601Z,15.95
2022-08-20T04:17:33.473Z,14.50
2022-08-20T04:22:36.879Z,12.32
2022-08-20T04:27:42.240Z,13.50
2022-08-20T04:32:46.316Z,16.27
2022-08-20T04:37:49.702Z,18.02
2022-08-20T04:42:53.932Z,18.25
2022-08-20T04:47:58.349Z,20.75
2022-08-20T04:53:01.177Z,16.85
2022-08-20T04:58:05.635Z,16.58
2022-08-20T05:03:09.704Z,16.52
2022-08-20T05:08:20.171Z,16.30
2022-08-20T05:13:27.277Z,14.00
2022-08-20T05:23:40.575Z,20.05
2022-08-20T05:34:04.044Z,15.73
2022-08-20T05:39:06.931Z,14.43
2022-08-20T05:44:13.487Z,17.40
2022-08-20T05:49:20.485Z,12.48
2022-08-20T05:54:23.893Z,17.58
2022-08-20T05:59:27.596Z,11.90
2022-08-20T06:04:32.122Z,13.50
2022-08-20T06:09:36.221Z,12.13
2022-08-20T06:14:39.137Z,15.25
2022-08-20T06:19:44.831Z,14.68
2022-08-20T06:24:48.069Z,13.88
2022-08-20T06:29:52.006Z,19.85
2022-08-20T06:34:56.103Z,14.75
2022-08-20T06:40:03.805Z,15.07
2022-08-20T06:45:07.850Z,14.70
2022-08-20T06:50:15.107Z,15.75
2022-08-20T06:55:18.486Z,16.65
2022-08-20T07:00:21.245Z,17.08
2022-08-20T07:05:26.639Z,12.00
2022-08-20T07:10:30.567Z,13.95
2022-08-20T07:15:33.583Z,11.80
2022-08-20T07:20:40.498Z,16.30
2022-08-20T07:25:44.885Z,14.15
2022-08-20T07:31:13.844Z,14.45
2022-08-20T07:36:20.329Z,10.88
2022-08-20T07:41:23.133Z,13.35
2022-08-20T07:46:31.073Z,12.68
2022-08-20T07:51:37.373Z,9.52
2022-08-20T07:56:40.100Z,11.07
2022-08-20T08:01:43.161Z,9.32
2022-08-20T08:06:47.466Z,8.57
2022-08-20T08:11:51.756Z,11.90
2022-08-20T08:16:57.281Z,7.50
2022-08-20T08:22:01.432Z,9.15
2022-08-20T08:27:04.652Z,10.30
2022-08-20T08:32:08.585Z,8.18
2022-08-20T08:37:12.729Z,4.30
2022-08-20T08:42:27.536Z,4.75
2022-08-20T08:47:35.894Z,3.50
2022-08-20T08:52:41.311Z,6.60
2022-08-20T08:57:44.034Z,11.48
2022-08-20T09:02:57.249Z,6.18
2022-08-20T09:08:03.893Z,5.80
2022-08-20T09:13:06.692Z,4.35
2022-08-20T09:18:09.475Z,5.53
2022-08-20T09:23:13.545Z,7.85
2022-08-20T09:28:16.361Z,5.68
2022-08-20T09:33:19.578Z,5.75
2022-08-20T09:38:23.658Z,4.40
2022-08-20T09:43:26.435Z,5.57
2022-08-20T09:48:31.969Z,3.83
2022-08-20T09:53:36.593Z,6.90
2022-08-20T09:58:48.474Z,2.30
2022-08-20T10:03:51.876Z,4.03
2022-08-20T10:08:55.962Z,6.40
2022-08-20T10:13:58.922Z,6.65
2022-08-20T10:19:01.772Z,6.97
2022-08-20T10:24:06.206Z,2.45
2022-08-20T10:29:08.957Z,4.13
2022-08-20T10:34:11.783Z,7.38
2022-08-20T10:39:16.517Z,2.42
2022-08-20T10:44:19.255Z,3.28
2022-08-20T10:49:22.046Z,3.90
2022-08-20T10:54:26.211Z,2.92
2022-08-20T10:59:29.000Z,3.55
2022-08-20T11:04:31.729Z,2.72
2022-08-20T11:09:35.818Z,2.10
2022-08-20T11:14:38.693Z,8.45
2022-08-20T11:19:43.204Z,2.05
2022-08-20T11:24:48.141Z,6.00
2022-08-20T11:29:51.144Z,2.65
2022-08-20T11:34:53.917Z,3.88
2022-08-20T11:39:58.122Z,5.82
2022-08-20T11:45:00.886Z,2.47
2022-08-20T11:50:06.587Z,2.50
2022-08-20T11:55:14.327Z,7.65
2022-08-20T12:00:21.754Z,2.28
2022-08-20T12:05:35.205Z,3.67
2022-08-20T12:10:40.179Z,4.57
2022-08-20T12:15:43.754Z,4.05
2022-08-20T12:20:46.522Z,2.22
2022-08-20T12:25:54.903Z,2.35
2022-08-20T12:30:58.218Z,1.40
2022-08-20T12:36:00.971Z,3.15
2022-08-20T12:41:05.114Z,1.85
2022-08-20T12:46:07.923Z,2.58
2022-08-20T12:51:10.696Z,5.10
2022-08-20T12:56:14.775Z,4.07
2022-08-20T13:01:17.655Z,6.53
2022-08-20T13:06:20.474Z,1.40
2022-08-20T13:11:26.964Z,2.60
2022-08-20T13:16:29.723Z,8.50
2022-08-20T13:21:32.507Z,2.72
2022-08-20T13:26:36.635Z,5.30
2022-08-20T13:31:41.787Z,2.67
2022-08-20T13:36:44.519Z,4.60
2022-08-20T14:59:40.290Z,4.20
2022-08-20T15:04:45.360Z,4.93
2022-08-20T15:09:56.203Z,3.30
2022-08-20T15:14:59.769Z,3.45
2022-08-20T15:20:20.970Z,4.65
2022-08-20T15:25:26.598Z,5.47
2022-08-20T15:30:31.221Z,6.63
2022-08-20T15:35:35.663Z,3.28
2022-08-20T15:40:38.514Z,3.80
2022-08-20T15:45:41.249Z,3.60
2022-08-20T15:51:03.527Z,6.05
2022-08-20T15:56:18.013Z,4.72
2022-08-20T16:01:28.547Z,6.30
2022-08-20T16:06:34.710Z,5.10
2022-08-20T16:11:48.283Z,6.47
2022-08-20T16:16:57.923Z,6.03
2022-08-20T16:22:07.392Z,7.72
2022-08-20T16:27:17.276Z,7.65
2022-08-20T16:32:36.606Z,5.15
2022-08-20T16:37:48.258Z,8.10
2022-08-20T16:42:53.223Z,9.68
2022-08-20T16:48:01.910Z,10.48
2022-08-20T16:53:06.362Z,8.27
2022-08-20T16:58:09.130Z,9.97
2022-08-20T17:03:31.416Z,10.57
2022-08-20T17:08:51.169Z,8.43
2022-08-20T17:14:08.311Z,7.30
2022-08-20T17:19:19.118Z,6.80
2022-08-20T17:24:27.352Z,8.88
2022-08-20T17:29:34.438Z,11.95
2022-08-20T17:34:45.518Z,13.90
2022-08-20T17:39:51.652Z,13.85
2022-08-20T17:44:56.870Z,7.00
2022-08-20T17:50:04.220Z,16.75
2022-08-20T17:55:09.691Z,15.40
2022-08-20T18:00:15.923Z,10.88
2022-08-20T18:05:21.403Z,16.20
2022-08-20T18:10:27.987Z,19.20
2022-08-20T18:15:35.046Z,16.02
2022-08-20T18:25:58.422Z,12.95
2022-08-20T18:31:04.425Z,9.57
2022-08-20T18:36:15.267Z,21.30
2022-08-20T18:41:30.957Z,12.65
2022-08-20T18:46:34.319Z,12.40
2022-08-20T18:51:41.323Z,13.90
2022-08-20T18:56:45.498Z,17.48
2022-08-20T19:01:50.210Z,16.35
2022-08-20T19:06:58.075Z,13.65
2022-08-20T19:12:21.741Z,27.50
2022-08-20T19:17:38.259Z,25.08
2022-08-20T19:22:43.341Z,24.10
2022-08-20T19:27:47.442Z,12.82
2022-08-20T19:32:53.087Z,12.23
2022-08-20T19:37:56.069Z,9.80
2022-08-20T19:43:04.759Z,14.40
2022-08-20T19:48:28.735Z,24.52
2022-08-20T19:53:33.395Z,28.42
2022-08-20T19:58:37.775Z,15.45
2022-08-20T20:03:40.522Z,21.70
2022-08-20T20:08:50.947Z,11.75
2022-08-20T20:13:55.453Z,12.93
2022-08-20T20:19:22.717Z,10.90
2022-08-20T20:24:25.388Z,13.23
2022-08-20T20:29:35.797Z,15.63
2022-08-20T20:34:54.943Z,9.60
2022-08-20T20:40:04.855Z,10.52
2022-08-20T20:45:20.035Z,24.90
2022-08-20T20:50:34.183Z,16.20
2022-08-20T20:55:39.170Z,15.77
2022-08-20T21:00:43.271Z,19.83
2022-08-20T21:05:46.202Z,13.10
2022-08-20T21:10:49.847Z,25.67
2022-08-20T21:15:54.030Z,14.10
2022-08-20T21:20:56.784Z,19.88
2022-08-20T21:26:00.610Z,12.18
2022-08-20T21:31:04.920Z,19.88
2022-08-20T21:36:08.104Z,14.65
2022-08-20T21:41:11.284Z,18.75
2022-08-20T21:46:15.339Z,15.02
2022-08-20T21:51:18.035Z,22.42
2022-08-20T21:56:21.042Z,10.45
2022-08-20T22:01:26.862Z,15.77
2022-08-20T22:06:29.639Z,21.08
2022-08-20T22:11:33.334Z,19.90
2022-08-20T22:16:37.638Z,15.63
2022-08-20T22:21:45.207Z,18.33
2022-08-20T22:26:47.991Z,22.85
2022-08-20T22:31:52.720Z,18.63
2022-08-20T22:36:58.139Z,21.50
2022-08-20T22:42:00.886Z,11.38
2022-08-20T22:47:08.500Z,13.68
2022-08-20T22:57:15.171Z,19.88
2022-08-20T23:02:25.146Z,12.48
2022-08-20T23:07:28.031Z,19.52
2022-08-20T23:12:31.249Z,13.88
2022-08-20T23:17:37.923Z,19.17
2022-08-20T23:22:40.751Z,13.95
2022-08-20T23:27:45.726Z,20.10
2022-08-20T23:32:49.986Z,10.85
2022-08-20T23:37:56.750Z,14.00
2022-08-20T23:43:00.280Z,14.73
2022-08-20T23:48:04.934Z,11.48
2022-08-20T23:53:07.731Z,21.05
2022-08-20T23:58:10.707Z,14.90
